createdAt,value
2023-10-30T00:02:25.997Z,13.04
2023-10-30T00:04:53.542Z,13.05
2023-10-30T00:07:21.069Z,13.04
2023-10-30T00:09:48.749Z,13.03
2023-10-30T00:12:16.495Z,13.05
2023-10-30T00:14:45.385Z,13.05
2023-10-30T00:17:13.022Z,13.05
2023-10-30T00:19:40.555Z,13.03
2023-10-30T00:22:12.107Z,13.01
2023-10-30T00:24:39.724Z,13.00
2023-10-30T00:27:07.323Z,12.99
2023-10-30T00:29:39.616Z,12.98
2023-10-30T00:32:09.138Z,12.99
2023-10-30T00:34:36.939Z,13.01
2023-10-30T00:37:05.218Z,13.01
2023-10-30T00:39:33.786Z,13.03
2023-10-30T00:42:01.782Z,13.02
2023-10-30T00:44:29.615Z,13.02
2023-10-30T00:46:57.127Z,12.99
2023-10-30T00:49:25.957Z,12.94
2023-10-30T00:51:53.480Z,12.95
2023-10-30T00:54:21.051Z,12.94
2023-10-30T00:56:48.635Z,12.93
2023-10-30T00:59:16.308Z,12.95
2023-10-30T01:01:43.854Z,12.95
2023-10-30T01:04:11.570Z,12.92
2023-10-30T01:06:40.660Z,12.91
2023-10-30T01:09:08.226Z,12.93
2023-10-30T01:11:35.785Z,12.96
2023-10-30T01:14:03.309Z,12.97
2023-10-30T01:16:30.840Z,12.97
2023-10-30T01:18:58.376Z,12.96
2023-10-30T01:21:25.929Z,12.97
2023-10-30T01:23:54.937Z,12.98
2023-10-30T01:26:22.528Z,12.99
2023-10-30T01:28:50.052Z,13.02
2023-10-30T01:31:17.565Z,13.05
2023-10-30T01:33:45.368Z,13.05
2023-10-30T01:36:13.893Z,13.06
2023-10-30T01:38:41.417Z,13.07
2023-10-30T01:41:10.275Z,13.08
2023-10-30T01:43:37.811Z,13.10
2023-10-30T01:46:06.702Z,13.11
2023-10-30T01:48:36.102Z,13.10
2023-10-30T01:51:06.421Z,13.12
2023-10-30T01:53:35.096Z,13.11
2023-10-30T01:56:04.951Z,13.12
2023-10-30T01:58:34.127Z,13.14
2023-10-30T02:01:01.983Z,13.15
2023-10-30T02:03:29.702Z,13.22
2023-10-30T02:05:57.585Z,13.23
2023-10-30T02:08:25.274Z,13.25
2023-10-30T02:10:53.536Z,13.27
2023-10-30T02:13:21.068Z,13.26
2023-10-30T02:15:50.212Z,13.23
2023-10-30T02:18:17.841Z,13.23
2023-10-30T02:20:45.421Z,13.19
2023-10-30T02:23:12.941Z,13.16
2023-10-30T02:25:41.880Z,13.17
2023-10-30T02:28:09.418Z,13.20
2023-10-30T02:30:37.039Z,13.21
2023-10-30T02:33:04.683Z,13.17
2023-10-30T02:35:32.228Z,13.15
2023-10-30T02:37:59.786Z,13.17
2023-10-30T02:40:27.336Z,13.19
2023-10-30T02:42:56.283Z,13.20
2023-10-30T02:45:23.860Z,13.18
2023-10-30T02:47:51.501Z,13.15
2023-10-30T02:50:19.065Z,13.11
2023-10-30T02:52:46.637Z,13.09
2023-10-30T02:55:14.209Z,13.10
2023-10-30T02:57:41.995Z,13.10
2023-10-30T03:00:11.841Z,13.09
2023-10-30T03:02:39.844Z,13.09
2023-10-30T03:05:08.654Z,13.12
2023-10-30T03:07:36.407Z,13.13
2023-10-30T03:10:03.946Z,13.12
2023-10-30T03:12:31.497Z,13.10
2023-10-30T03:14:59.080Z,13.10
2023-10-30T03:17:28.017Z,13.15
2023-10-30T03:19:55.545Z,13.18
2023-10-30T03:22:23.294Z,13.14
2023-10-30T03:24:50.811Z,13.11
2023-10-30T03:27:18.375Z,13.09
2023-10-30T03:29:45.939Z,13.08
2023-10-30T03:32:13.442Z,13.10
2023-10-30T03:34:42.341Z,13.09
2023-10-30T03:37:10.675Z,13.06
2023-10-30T03:39:38.380Z,13.06
2023-10-30T03:42:06.569Z,13.06
2023-10-30T03:44:34.168Z,13.06
2023-10-30T03:47:01.680Z,13.05
2023-10-30T03:49:29.209Z,13.07
2023-10-30T03:51:58.161Z,13.07
2023-10-30T03:54:25.754Z,13.07
2023-10-30T03:56:53.326Z,13.07
2023-10-30T03:59:21.392Z,13.07
2023-10-30T04:01:48.995Z,13.08
2023-10-30T04:04:16.678Z,13.08
2023-10-30T04:06:44.624Z,13.05
2023-10-30T04:09:13.594Z,13.03
2023-10-30T04:11:41.505Z,13.02
2023-10-30T04:14:09.037Z,12.99
2023-10-30T04:16:36.627Z,12.94
2023-10-30T04:19:04.428Z,12.91
2023-10-30T06:42:29.412Z,10.88
2023-10-30T08:45:07.617Z,15.11
2023-10-30T08:55:43.208Z,16.22
2023-10-30T08:58:12.219Z,16.43
2023-10-30T09:00:44.060Z,16.57
2023-10-30T09:03:13.249Z,16.67
2023-10-30T09:05:42.252Z,16.75
2023-10-30T09:08:11.420Z,16.82
2023-10-30T09:11:00.676Z,16.88
2023-10-30T09:13:28.968Z,17.00
2023-10-30T09:15:58.797Z,17.12
2023-10-30T09:18:27.485Z,17.32
2023-10-30T09:20:55.927Z,17.54
2023-10-30T09:23:24.894Z,17.68
2023-10-30T09:25:53.203Z,17.78
2023-10-30T09:28:23.148Z,17.82
2023-10-30T09:30:52.618Z,17.80
2023-10-30T09:33:26.319Z,17.74
2023-10-30T09:38:33.091Z,17.68
2023-10-30T09:41:05.230Z,17.70
2023-10-30T09:43:34.973Z,17.76
2023-10-30T09:46:27.574Z,17.86
2023-10-30T09:49:34.655Z,18.00
2023-10-30T09:52:37.766Z,17.99
2023-10-30T09:57:49.528Z,17.84
2023-10-30T10:00:29.545Z,17.66
2023-10-30T11:00:04.919Z,16.38
2023-10-30T11:02:33.122Z,16.34
2023-10-30T11:05:01.283Z,16.32
2023-10-30T11:07:33.828Z,16.27
2023-10-30T11:10:08.368Z,16.21
2023-10-30T11:12:52.950Z,16.19
2023-10-30T11:15:31.847Z,16.14
2023-10-30T11:18:15.772Z,16.08
2023-10-30T11:20:44.026Z,16.02
2023-10-30T11:23:11.837Z,16.00
2023-10-30T11:25:45.667Z,15.96
2023-10-30T11:28:13.273Z,15.96
2023-10-30T11:30:46.543Z,15.94
2023-10-30T11:33:21.867Z,15.95
2023-10-30T11:36:13.026Z,15.96
2023-10-30T11:38:49.605Z,15.99
2023-10-30T11:41:18.380Z,15.99
2023-10-30T11:43:46.782Z,15.99
2023-10-30T11:46:18.606Z,15.98
2023-10-30T11:48:46.536Z,15.98
2023-10-30T11:51:16.631Z,15.95
2023-10-30T11:53:44.539Z,15.93
2023-10-30T11:56:14.586Z,15.90
2023-10-30T11:58:42.203Z,15.86
2023-10-30T12:01:10.416Z,15.84
2023-10-30T12:03:39.334Z,15.83
2023-10-30T12:06:07.141Z,15.80
2023-10-30T12:08:34.819Z,15.80
2023-10-30T12:11:02.423Z,15.78
2023-10-30T12:13:30.005Z,15.79
2023-10-30T12:15:57.648Z,15.80
2023-10-30T12:18:25.463Z,15.80
2023-10-30T12:20:54.537Z,15.80
2023-10-30T12:23:22.066Z,15.79
2023-10-30T12:25:51.625Z,15.80
2023-10-30T12:28:19.398Z,15.81
2023-10-30T12:30:47.832Z,15.83
2023-10-30T12:33:23.088Z,15.84
2023-10-30T12:35:59.413Z,15.86
2023-10-30T12:38:26.959Z,15.90
2023-10-30T12:40:55.109Z,15.92
2023-10-30T12:43:22.712Z,15.95
2023-10-30T12:45:50.271Z,15.95
2023-10-30T12:48:17.856Z,15.96
2023-10-30T12:50:45.377Z,15.96
2023-10-30T12:53:14.246Z,15.97
2023-10-30T12:55:42.225Z,15.97
2023-10-30T12:58:09.814Z,15.98
2023-10-30T13:00:37.490Z,16.00
2023-10-30T13:03:05.162Z,16.03
2023-10-30T13:05:32.762Z,16.02
2023-10-30T13:08:00.320Z,15.98
2023-10-30T13:10:29.192Z,15.97
2023-10-30T13:12:56.727Z,15.94
2023-10-30T13:15:24.530Z,15.92
2023-10-30T13:17:53.714Z,15.90
2023-10-30T13:20:21.401Z,15.90
2023-10-30T13:22:49.022Z,15.90
2023-10-30T13:25:17.392Z,15.89
2023-10-30T13:27:46.282Z,15.89
2023-10-30T13:30:14.681Z,15.88
2023-10-30T13:32:42.303Z,15.86
2023-10-30T13:35:10.226Z,15.85
2023-10-30T13:37:37.826Z,15.85
2023-10-30T13:40:07.604Z,15.85
2023-10-30T13:42:37.935Z,15.80
2023-10-30T13:45:08.194Z,15.81
2023-10-30T13:47:35.838Z,15.79
2023-10-30T13:50:03.483Z,15.73
2023-10-30T13:52:31.060Z,15.68
2023-10-30T13:54:58.591Z,15.66
2023-10-30T13:57:26.365Z,15.65
2023-10-30T13:59:53.879Z,15.67
2023-10-30T14:02:22.815Z,15.65
2023-10-30T14:04:50.698Z,15.61
2023-10-30T14:07:20.759Z,15.59
2023-10-30T14:09:49.103Z,15.58
2023-10-30T14:12:19.572Z,15.54
2023-10-30T14:14:47.237Z,15.51
2023-10-30T14:17:14.779Z,15.50
2023-10-30T14:19:43.794Z,15.47
2023-10-30T14:22:12.749Z,15.47
2023-10-30T14:24:40.385Z,15.45
2023-10-30T14:27:08.566Z,15.44
2023-10-30T14:29:36.105Z,15.43
2023-10-30T14:32:04.644Z,15.40
2023-10-30T14:34:34.056Z,15.37
2023-10-30T14:37:02.973Z,15.35
2023-10-30T14:39:30.493Z,15.37
2023-10-30T14:41:57.990Z,15.39
2023-10-30T14:44:25.666Z,15.44
2023-10-30T14:46:53.631Z,15.46
2023-10-30T14:49:21.313Z,15.47
2023-10-30T14:51:48.953Z,15.48
2023-10-30T14:54:17.780Z,15.44
2023-10-30T14:56:45.268Z,15.42
2023-10-30T14:59:13.599Z,15.38
2023-10-30T15:01:41.195Z,15.34
2023-10-30T15:04:09.132Z,15.29
2023-10-30T15:06:36.788Z,15.28
2023-10-30T15:09:05.467Z,15.27
2023-10-30T15:11:34.595Z,15.23
2023-10-30T15:14:02.187Z,15.21
2023-10-30T15:16:29.888Z,15.15
2023-10-30T15:18:57.579Z,15.12
2023-10-30T15:21:25.126Z,15.09
2023-10-30T15:23:53.050Z,15.04
2023-10-30T15:26:20.911Z,15.03
2023-10-30T15:28:49.897Z,15.01
2023-10-30T15:31:17.520Z,15.00
2023-10-30T15:33:45.197Z,14.96
2023-10-30T15:36:12.821Z,14.91
2023-10-30T15:38:40.370Z,14.88
2023-10-30T15:41:08.039Z,14.86
2023-10-30T15:43:35.564Z,14.83
2023-10-30T15:46:04.736Z,14.78
2023-10-30T15:48:32.402Z,14.75
2023-10-30T15:50:59.979Z,14.75
2023-10-30T16:23:37.326Z,14.53
2023-10-30T16:26:05.979Z,14.48
2023-10-30T16:28:33.970Z,14.47
2023-10-30T16:31:01.645Z,14.48
2023-10-30T16:33:29.291Z,14.52
2023-10-30T16:35:58.177Z,14.53
2023-10-30T16:38:25.879Z,14.52
2023-10-30T16:40:55.149Z,14.54
2023-10-30T16:43:22.965Z,14.54
2023-10-30T16:45:50.687Z,14.56
2023-10-30T16:48:20.203Z,14.55
2023-10-30T16:50:47.937Z,14.53
2023-10-30T16:53:16.945Z,14.52
2023-10-30T16:55:44.776Z,14.53
2023-10-30T16:58:14.820Z,14.52
2023-10-30T17:00:44.814Z,14.52
2023-10-30T17:03:15.327Z,14.51
2023-10-30T17:05:43.085Z,14.52
2023-10-30T17:08:10.754Z,14.52
2023-10-30T17:10:39.777Z,14.49
2023-10-30T17:13:09.669Z,14.47
2023-10-30T17:15:37.706Z,14.42
2023-10-30T17:18:06.850Z,14.40
2023-10-30T17:20:34.393Z,14.40
2023-10-30T17:23:01.897Z,14.41
2023-10-30T17:25:30.720Z,14.37
2023-10-30T17:27:59.449Z,14.35
2023-10-30T17:30:27.037Z,14.34
2023-10-30T17:32:54.727Z,14.31
2023-10-30T17:35:23.834Z,14.25
2023-10-30T17:37:51.472Z,14.22
2023-10-30T17:40:19.404Z,14.20
2023-10-30T17:42:47.026Z,14.18
2023-10-30T17:45:18.831Z,14.16
2023-10-30T17:47:46.584Z,14.15
2023-10-30T17:50:14.410Z,14.10
2023-10-30T17:52:43.687Z,14.09
2023-10-30T17:55:19.338Z,14.06
2023-10-30T17:57:47.049Z,14.02
2023-10-30T18:00:15.675Z,14.05
2023-10-30T18:02:43.857Z,14.04
2023-10-30T18:05:11.954Z,14.01
2023-10-30T18:11:30.538Z,13.99
2023-10-30T18:14:16.606Z,13.98
2023-10-30T18:19:49.030Z,13.96
2023-10-30T18:22:17.597Z,13.94
2023-10-30T18:24:45.231Z,13.96
2023-10-30T18:27:14.180Z,13.97
2023-10-30T18:29:41.705Z,13.96
2023-10-30T18:32:09.312Z,13.96
2023-10-30T18:34:37.546Z,13.96
2023-10-30T18:37:06.169Z,13.93
2023-10-30T18:39:33.979Z,13.92
2023-10-30T18:42:02.137Z,13.89
2023-10-30T18:44:31.276Z,13.88
2023-10-30T18:46:58.911Z,13.87
2023-10-30T18:49:26.727Z,13.86
2023-10-30T18:51:54.270Z,13.87
2023-10-30T18:54:21.920Z,13.89
2023-10-30T19:02:13.873Z,13.94
2023-10-30T19:04:42.902Z,13.95
2023-10-30T19:07:10.477Z,13.96
2023-10-30T19:09:40.007Z,13.96
2023-10-30T19:12:08.472Z,13.96
2023-10-30T19:14:36.358Z,13.94
2023-10-30T19:17:04.391Z,13.91
2023-10-30T19:25:07.462Z,13.92
2023-10-30T19:27:35.508Z,13.90
2023-10-30T19:30:03.322Z,13.86
2023-10-30T19:37:54.821Z,13.82
2023-10-30T19:40:23.961Z,13.83
2023-10-30T19:42:53.917Z,13.81
2023-10-30T19:45:21.669Z,13.79
2023-10-30T19:47:49.302Z,13.82
2023-10-30T19:50:17.240Z,13.80
2023-10-30T19:52:47.362Z,13.77
2023-10-30T20:44:31.775Z,13.56
2023-10-30T20:47:13.233Z,13.56
2023-10-30T20:49:46.691Z,13.56
2023-10-30T20:55:10.747Z,13.58
2023-10-30T20:57:40.125Z,13.56
2023-10-30T21:00:09.238Z,13.53
2023-10-30T21:02:36.885Z,13.54
2023-10-30T21:05:05.081Z,13.55
2023-10-30T21:07:32.837Z,13.57
2023-10-30T21:10:03.347Z,13.57
2023-10-30T21:12:33.650Z,13.56
2023-10-30T21:15:03.549Z,13.54
2023-10-30T21:17:31.200Z,13.53
2023-10-30T21:20:00.083Z,13.55
2023-10-30T21:25:03.396Z,13.53
2023-10-30T21:27:31.190Z,13.51
2023-10-30T21:29:58.752Z,13.47
2023-10-30T21:32:27.663Z,13.45
2023-10-30T21:34:55.333Z,13.46
2023-10-30T21:37:23.194Z,13.47
2023-10-30T21:39:50.723Z,13.45
2023-10-30T21:42:18.253Z,13.47
2023-10-30T21:44:46.733Z,13.50
2023-10-30T21:47:14.356Z,13.50
2023-10-30T21:49:43.308Z,13.51
2023-10-30T21:52:10.909Z,13.53
2023-10-30T21:54:38.483Z,13.53
2023-10-30T21:57:06.167Z,13.50
2023-10-30T21:59:33.758Z,13.47
2023-10-30T22:02:01.413Z,13.44
2023-10-30T22:04:29.174Z,13.45
2023-10-30T22:06:58.103Z,13.46
2023-10-30T22:09:26.046Z,13.46
2023-10-30T22:11:53.651Z,13.44
2023-10-30T22:14:23.680Z,13.42
2023-10-30T22:16:52.492Z,13.40
2023-10-30T22:19:20.063Z,13.39
2023-10-30T22:21:47.605Z,13.37
2023-10-30T22:24:16.522Z,13.34
2023-10-30T22:26:44.057Z,13.30
2023-10-30T22:29:11.733Z,13.26
2023-10-30T22:31:39.350Z,13.25
2023-10-30T22:34:07.225Z,13.25
2023-10-30T22:36:34.741Z,13.22
2023-10-30T22:39:02.384Z,13.22
2023-10-30T22:41:32.390Z,13.23
2023-10-30T22:44:00.036Z,13.24
2023-10-30T22:46:27.627Z,13.24
2023-10-30T22:48:55.219Z,13.24
2023-10-30T22:51:22.879Z,13.21
2023-10-30T22:53:50.446Z,13.16
2023-10-30T22:56:18.011Z,13.13
2023-10-30T23:58:44.240Z,12.85
